Time;durP1;ratioP1;P1;durP2;ratioP2;P2;SDS_P1;SDS_P2;PMS_P1;PMS_P2;Temp;Humidity;BMP_temperature;BMP_pressure;BME280_temperature;BME280_humidity;BME280_pressure;Samples;Min_cycle;Max_cycle;Signal;HPM_P1;HPM_P2
2021/10/03 00:00:27;;;;;;;8.95;6.85;;;14.20;78.50;;;13.05;82.50;95448.88;4996565;28;20533;-66
2021/10/03 00:02:53;;;;;;;9.38;6.97;;;14.20;78.40;;;13.03;82.10;95445.66;4998336;28;20037;-66
2021/10/03 00:05:19;;;;;;;9.20;7.22;;;14.20;78.40;;;13.01;81.74;95458.28;4981704;28;20091;-66
2021/10/03 00:07:55;;;;;;;7.55;6.75;;;14.20;78.40;;;13.01;82.38;95447.72;4993187;28;20034;-66
2021/10/03 00:10:22;;;;;;;8.55;6.80;;;14.10;78.50;;;12.98;82.57;95450.81;4996385;28;20029;-66
2021/10/03 00:12:48;;;;;;;10.30;6.70;;;14.10;78.50;;;12.95;82.14;95443.34;5013719;28;20036;-66
2021/10/03 00:15:15;;;;;;;10.60;7.43;;;14.10;78.60;;;12.93;82.35;95437.47;5014737;28;20061;-67
2021/10/03 00:17:41;;;;;;;9.68;6.82;;;14.10;78.70;;;12.89;82.15;95440.53;4980676;28;20030;-66
2021/10/03 00:20:08;;;;;;;8.02;6.80;;;14.10;78.70;;;12.88;82.88;95438.91;4997168;28;20030;-66
2021/10/03 00:22:33;;;;;;;8.20;6.78;;;14.10;78.60;;;12.87;82.35;95433.84;5026162;28;20069;-66
2021/10/03 00:24:59;;;;;;;8.38;6.60;;;14.10;78.60;;;12.81;82.76;95432.09;5030646;28;20026;-66
2021/10/03 00:27:25;;;;;;;8.57;6.85;;;14.00;78.70;;;12.78;82.12;95428.06;4986051;28;20062;-66
2021/10/03 00:29:51;;;;;;;7.65;6.32;;;14.00;78.40;;;12.76;82.55;95432.75;4994121;28;20030;-66
2021/10/03 00:32:17;;;;;;;7.75;6.95;;;13.90;78.60;;;12.75;82.60;95428.50;4990104;28;20406;-66
2021/10/03 00:34:42;;;;;;;9.05;6.47;;;14.00;78.50;;;12.71;82.58;95427.34;4980843;28;20093;-66
2021/10/03 00:37:08;;;;;;;8.52;6.55;;;13.80;78.60;;;12.72;82.49;95428.13;5013908;28;20124;-66
2021/10/03 00:39:34;;;;;;;11.27;6.30;;;13.80;78.60;;;12.68;82.28;95427.78;5013270;28;20087;-66
2021/10/03 00:42:00;;;;;;;8.45;6.13;;;13.80;78.60;;;12.65;82.44;95417.63;4977197;28;20057;-66
2021/10/03 00:44:27;;;;;;;10.18;6.68;;;13.80;78.50;;;12.62;81.94;95412.78;4996257;28;20135;-66
2021/10/03 00:46:52;;;;;;;7.00;5.85;;;13.80;78.60;;;12.57;82.63;95410.81;4994383;28;20040;-66
2021/10/03 00:49:18;;;;;;;8.45;6.63;;;13.80;78.70;;;12.54;82.62;95413.09;5012255;28;20038;-66
2021/10/03 00:51:44;;;;;;;10.25;6.90;;;13.70;78.70;;;12.50;82.79;95407.44;4964846;28;20037;-66
2021/10/03 00:54:09;;;;;;;7.75;6.95;;;13.60;79.20;;;12.48;82.97;95406.03;4981201;28;20037;-66
2021/10/03 00:56:35;;;;;;;7.60;6.80;;;13.60;79.10;;;12.48;83.31;95406.03;4996487;28;20433;-66
2021/10/03 00:59:01;;;;;;;8.90;6.85;;;13.70;79.00;;;12.44;83.57;95405.66;4998575;28;20083;-66
2021/10/03 01:01:27;;;;;;;13.43;6.93;;;13.60;79.10;;;12.43;83.17;95411.16;5013990;28;20274;-61
2021/10/03 01:03:52;;;;;;;7.95;6.55;;;13.60;79.00;;;12.40;83.64;95399.19;4980981;28;20025;-61
2021/10/03 01:06:18;;;;;;;9.73;6.63;;;13.60;79.10;;;12.39;83.64;95412.59;4997479;28;20060;-62
2021/10/03 01:08:44;;;;;;;9.55;6.57;;;13.60;79.10;;;12.33;83.08;95402.94;4964645;28;20049;-62
2021/10/03 01:11:10;;;;;;;9.32;6.25;;;13.60;79.00;;;12.33;82.92;95408.22;4980954;28;20037;-62
2021/10/03 01:13:35;;;;;;;7.68;5.93;;;13.60;78.90;;;12.31;82.94;95404.97;4993215;28;20096;-62
2021/10/03 01:16:01;;;;;;;9.70;6.30;;;13.60;78.90;;;12.31;83.06;95408.41;4997077;28;20467;-61
2021/10/03 01:18:27;;;;;;;7.50;6.07;;;13.60;78.80;;;12.31;83.01;95410.25;5011817;28;20757;-61
2021/10/03 01:20:53;;;;;;;8.80;5.70;;;13.50;78.70;;;12.31;82.94;95410.25;4980359;28;20402;-62
2021/10/03 01:23:19;;;;;;;7.38;6.10;;;13.50;78.60;;;12.30;82.35;95403.38;4995895;28;20034;-62
2021/10/03 01:25:47;;;;;;;7.80;5.90;;;13.60;78.50;;;12.29;82.60;95399.13;5000458;28;20025;-61
2021/10/03 01:28:13;;;;;;;7.43;5.60;;;13.50;78.50;;;12.27;82.98;95400.13;4976605;28;20069;-62
2021/10/03 01:30:42;;;;;;;6.60;5.55;;;13.60;78.40;;;12.27;83.17;95394.88;4948515;28;20133;-63
2021/10/03 01:33:08;;;;;;;6.63;5.20;;;13.50;78.10;;;12.26;81.96;95398.53;4992654;28;20033;-62
2021/10/03 01:35:34;;;;;;;7.00;5.50;;;13.50;77.80;;;12.26;82.40;95397.72;4996327;28;20037;-62
2021/10/03 01:37:59;;;;;;;8.13;4.90;;;13.50;77.80;;;12.25;82.55;95396.91;4982183;28;20117;-61
2021/10/03 01:40:25;;;;;;;6.22;5.13;;;13.50;77.80;;;12.21;82.20;95385.16;4995134;28;20391;-62
2021/10/03 01:42:52;;;;;;;5.63;4.70;;;13.50;77.70;;;12.19;82.14;95392.47;5010692;28;20036;-62
2021/10/03 01:45:19;;;;;;;5.88;4.85;;;13.50;77.70;;;12.19;82.46;95392.47;4992830;28;20042;-62
2021/10/03 01:48:17;;;;;;;6.05;4.45;;;13.50;77.60;;;12.17;82.83;95389.25;4995764;28;20121;-62
2021/10/03 01:50:45;;;;;;;5.68;4.47;;;13.50;77.50;;;12.14;82.12;95384.44;5003838;28;20034;-62
2021/10/03 01:53:17;;;;;;;6.43;4.97;;;13.40;77.60;;;12.13;82.10;95377.53;4978648;28;20037;-62
2021/10/03 01:55:43;;;;;;;6.13;4.93;;;13.40;77.50;;;12.13;81.63;95376.72;4996013;28;20067;-62
2021/10/03 01:58:08;;;;;;;6.60;4.70;;;13.40;77.20;;;12.11;82.10;95381.41;4995450;28;20037;-61
2021/10/03 02:00:36;;;;;;;5.40;4.28;;;13.40;77.20;;;12.09;81.29;95376.38;4992605;28;20053;-62
2021/10/03 02:03:04;;;;;;;5.13;4.20;;;13.30;77.20;;;12.09;81.30;95370.28;4965614;28;20030;-62
2021/10/03 02:05:38;;;;;;;6.93;4.35;;;13.30;76.90;;;12.08;80.98;95373.94;4957612;28;20443;-62
2021/10/03 02:08:05;;;;;;;5.32;4.45;;;13.30;76.50;;;12.06;81.49;95371.53;4973352;28;20038;-61
2021/10/03 02:10:31;;;;;;;4.65;3.85;;;13.30;76.60;;;12.06;80.56;95368.09;4992032;28;20038;-62
2021/10/03 02:12:57;;;;;;;6.07;4.30;;;13.40;76.60;;;12.06;81.09;95371.53;4976107;28;20030;-62
2021/10/03 02:15:23;;;;;;;6.82;4.38;;;13.40;76.80;;;12.09;80.77;95376.38;4972799;28;20530;-62
2021/10/03 02:17:48;;;;;;;6.68;4.25;;;13.30;76.40;;;12.08;80.89;95372.13;4988011;28;20029;-62
2021/10/03 02:20:18;;;;;;;4.88;4.03;;;13.30;76.30;;;12.09;80.89;95372.91;4963601;28;20129;-61
2021/10/03 02:22:44;;;;;;;6.20;4.28;;;13.40;76.30;;;12.09;80.65;95370.28;4991238;28;20026;-62
2021/10/03 02:25:10;;;;;;;5.50;4.72;;;13.40;76.20;;;12.06;80.37;95365.44;4992098;28;20387;-62
2021/10/03 02:27:36;;;;;;;4.43;3.85;;;13.40;76.40;;;12.07;80.32;95361.78;4969854;28;20033;-62
2021/10/03 02:30:05;;;;;;;6.00;4.00;;;13.40;76.40;;;12.05;80.83;95363.84;4986118;28;20030;-61
2021/10/03 02:32:31;;;;;;;4.53;3.92;;;13.30;76.10;;;12.04;80.80;95360.41;5018471;28;20051;-62
2021/10/03 02:34:56;;;;;;;5.25;4.03;;;13.30;76.10;;;12.04;80.33;95363.03;4989701;28;20042;-62
2021/10/03 02:37:26;;;;;;;4.47;4.00;;;13.30;75.90;;;12.05;80.88;95351.47;4990531;28;20045;-62
2021/10/03 02:39:52;;;;;;;4.28;3.75;;;13.30;75.80;;;12.03;80.10;95350.88;4992240;28;20041;-62
2021/10/03 02:42:17;;;;;;;4.88;3.88;;;13.30;75.50;;;12.00;80.21;95353.13;5004019;28;20033;-62
2021/10/03 02:44:44;;;;;;;5.95;3.83;;;13.20;75.40;;;11.98;79.84;95353.31;4975373;28;20107;-62
2021/10/03 02:47:13;;;;;;;5.20;3.90;;;13.20;75.60;;;11.94;80.02;95358.22;4964239;28;20125;-62
2021/10/03 02:49:44;;;;;;;4.35;3.70;;;13.10;75.60;;;11.93;79.16;95359.25;4960681;28;20121;-62
2021/10/03 02:52:10;;;;;;;6.57;4.00;;;13.20;75.40;;;11.92;80.06;95355.00;4959224;28;20044;-62
2021/10/03 02:54:37;;;;;;;4.78;3.78;;;13.20;75.50;;;11.88;79.66;95353.03;4975489;28;20545;-61
2021/10/03 02:57:06;;;;;;;5.25;3.97;;;13.10;75.20;;;11.86;80.20;95350.59;4975674;28;20132;-62
2021/10/03 02:59:32;;;;;;;6.38;4.18;;;13.10;75.50;;;11.85;79.95;95342.91;4992175;28;20113;-62
2021/10/03 03:01:57;;;;;;;4.20;3.63;;;13.10;75.60;;;11.86;79.64;95342.69;4961145;28;20037;-62
2021/10/03 03:04:23;;;;;;;5.35;3.63;;;13.10;75.40;;;11.85;79.91;95340.28;5021159;28;20165;-62
2021/10/03 03:06:49;;;;;;;4.38;3.40;;;13.10;75.60;;;11.86;79.69;95344.53;4976510;28;20034;-62
2021/10/03 03:09:14;;;;;;;5.97;3.67;;;13.10;75.50;;;11.85;79.87;95338.44;4991127;28;20080;-62
2021/10/03 03:11:40;;;;;;;4.53;3.65;;;13.10;75.40;;;11.85;79.32;95335.81;4974648;28;20049;-62
2021/10/03 03:14:06;;;;;;;4.40;3.42;;;13.10;75.50;;;11.85;79.62;95335.81;4973904;28;20041;-62
2021/10/03 03:16:32;;;;;;;4.78;3.70;;;13.10;75.50;;;11.83;79.28;95334.41;5007168;28;20038;-61
2021/10/03 03:18:58;;;;;;;5.55;4.10;;;13.10;75.60;;;11.81;79.64;95329.38;4970225;28;20411;-62
2021/10/03 03:21:23;;;;;;;8.57;4.13;;;13.10;75.50;;;11.79;79.71;95328.78;4961113;28;21330;-61
2021/10/03 03:23:49;;;;;;;5.93;3.90;;;13.10;75.80;;;11.81;79.70;95328.56;4991501;28;20030;-62
2021/10/03 03:26:15;;;;;;;5.38;3.80;;;13.10;75.70;;;11.80;79.77;95329.59;4996087;28;20034;-62
2021/10/03 03:28:40;;;;;;;5.18;3.92;;;13.10;75.60;;;11.77;80.32;95327.31;4999179;28;20058;-62
2021/10/03 03:31:06;;;;;;;8.98;3.90;;;13.10;75.40;;;11.77;79.44;95329.97;4963880;28;20099;-62
2021/10/03 03:33:32;;;;;;;4.03;3.42;;;13.10;75.70;;;11.78;79.85;95323.69;4990305;28;20030;-62
2021/10/03 03:35:58;;;;;;;5.75;3.95;;;13.10;75.50;;;11.75;79.29;95322.25;4989663;28;20389;-62
2021/10/03 03:38:24;;;;;;;4.47;4.00;;;13.10;75.70;;;11.76;79.96;95320.44;4990303;28;20513;-62
2021/10/03 03:40:49;;;;;;;7.97;3.80;;;13.10;75.50;;;11.76;79.82;95318.59;4955739;28;20029;-62
2021/10/03 03:43:15;;;;;;;5.40;4.07;;;13.10;75.10;;;11.76;79.98;95323.88;4982152;28;20022;-62
2021/10/03 03:45:41;;;;;;;4.53;3.33;;;13.10;75.10;;;11.75;79.20;95322.25;4990234;28;20046;-62
2021/10/03 03:48:07;;;;;;;5.50;3.63;;;13.10;75.00;;;11.75;79.43;95321.47;4996049;28;20041;-62
2021/10/03 03:50:33;;;;;;;4.63;3.17;;;13.10;74.90;;;11.76;79.67;95320.44;4990551;28;20060;-62
2021/10/03 03:52:58;;;;;;;3.97;3.28;;;13.10;74.40;;;11.74;78.82;95311.94;4990615;28;20038;-62
2021/10/03 03:55:24;;;;;;;5.07;3.40;;;13.10;74.60;;;11.71;79.08;95315.00;4974253;28;20038;-62
2021/10/03 03:57:51;;;;;;;4.70;3.45;;;13.00;74.20;;;11.72;78.37;95316.63;4991280;28;20058;-62
2021/10/03 04:00:17;;;;;;;5.60;3.63;;;13.10;74.50;;;11.71;78.84;95310.56;5006780;28;20026;-62
2021/10/03 04:02:43;;;;;;;6.20;3.38;;;13.10;74.30;;;11.72;78.68;95309.53;4990353;28;20053;-62
2021/10/03 04:05:09;;;;;;;4.88;3.47;;;13.10;74.40;;;11.71;78.95;95309.75;4974427;28;20037;-62
2021/10/03 04:07:34;;;;;;;4.13;3.72;;;13.00;74.30;;;11.71;78.66;95309.75;4985112;28;20034;-62
2021/10/03 04:10:00;;;;;;;5.38;3.47;;;13.00;74.20;;;11.69;78.56;95304.69;4938791;28;20034;-61
2021/10/03 04:12:26;;;;;;;5.72;3.80;;;13.00;74.40;;;11.68;78.96;95310.19;4974367;28;20046;-62
2021/10/03 04:14:52;;;;;;;5.30;3.45;;;13.00;74.80;;;11.68;78.80;95305.72;4979250;28;20030;-62
2021/10/03 04:17:17;;;;;;;10.07;7.82;;;13.00;74.70;;;11.68;78.60;95305.72;4978552;28;20136;-61
2021/10/03 04:19:43;;;;;;;9.23;6.45;;;13.00;75.10;;;11.67;79.05;95309.38;4994355;28;20033;-62
2021/10/03 04:22:09;;;;;;;8.88;6.55;;;13.00;75.20;;;11.68;79.60;95305.72;4977853;28;20130;-62
2021/10/03 04:24:35;;;;;;;9.68;6.10;;;13.10;75.60;;;11.70;79.71;95313.41;4961523;28;20112;-63
2021/10/03 04:27:00;;;;;;;7.00;5.05;;;13.10;74.90;;;11.68;78.94;95300.44;4979408;28;20061;-62
2021/10/03 04:29:26;;;;;;;8.32;6.93;;;13.00;74.90;;;11.70;79.51;95302.88;4970773;28;20103;-62
2021/10/03 04:31:52;;;;;;;5.47;4.45;;;13.00;75.30;;;11.69;79.30;95296.78;4984837;28;20462;-62
2021/10/03 04:34:18;;;;;;;8.93;7.68;;;13.10;75.10;;;11.67;79.67;95293.56;4977441;28;20112;-63
2021/10/03 04:36:43;;;;;;;9.35;6.65;;;13.10;75.40;;;11.65;79.27;95293.78;4996864;28;20384;-62
2021/10/03 04:39:09;;;;;;;12.68;10.82;;;13.00;75.40;;;11.63;79.87;95301.09;5013484;28;20454;-62
2021/10/03 04:41:35;;;;;;;8.85;7.22;;;13.00;75.90;;;11.65;80.72;95296.41;5013258;28;20422;-63
2021/10/03 04:44:00;;;;;;;6.00;5.00;;;13.00;76.20;;;11.63;80.53;95309.00;5011100;28;20037;-61
2021/10/03 04:46:26;;;;;;;6.68;5.03;;;13.00;76.10;;;11.58;80.93;95306.22;4995822;28;20041;-62
2021/10/03 04:48:52;;;;;;;6.60;4.85;;;12.90;76.50;;;11.53;80.76;95302.59;4993453;28;20095;-62
2021/10/03 04:51:18;;;;;;;6.28;4.78;;;12.80;76.60;;;11.51;81.25;95299.34;4961264;28;20026;-67
2021/10/03 04:53:43;;;;;;;6.63;5.05;;;12.80;76.70;;;11.50;81.09;95303.81;4977753;28;20045;-62
2021/10/03 04:56:09;;;;;;;8.45;5.20;;;12.80;76.70;;;11.47;80.57;95309.53;4990313;28;20037;-64
2021/10/03 04:58:35;;;;;;;6.28;5.13;;;12.80;76.90;;;11.45;80.87;95308.94;4976541;28;20037;-63
2021/10/03 05:01:01;;;;;;;8.32;5.28;;;12.80;76.90;;;11.42;81.10;95311.19;4991980;28;20025;-65
2021/10/03 05:03:27;;;;;;;6.88;4.97;;;12.80;77.00;;;11.39;81.82;95307.16;4985577;28;20046;-64
2021/10/03 05:05:52;;;;;;;6.45;5.13;;;12.80;76.90;;;11.38;81.52;95310.00;4955661;28;20519;-65
2021/10/03 05:08:18;;;;;;;5.35;4.85;;;12.70;77.00;;;11.36;81.23;95310.22;4977557;28;20494;-65
2021/10/03 05:10:45;;;;;;;6.53;4.70;;;12.70;76.90;;;11.35;81.40;95304.16;4982529;28;20046;-62
2021/10/03 05:13:11;;;;;;;6.30;4.75;;;12.70;76.70;;;11.34;81.54;95320.97;4974566;28;20076;-62
2021/10/03 05:15:36;;;;;;;6.47;5.30;;;12.70;76.80;;;11.32;81.46;95306.41;4959157;28;20065;-62
2021/10/03 05:18:02;;;;;;;5.10;4.60;;;12.70;76.80;;;11.32;81.85;95312.47;4975462;28;20026;-62
2021/10/03 05:20:28;;;;;;;8.90;4.93;;;12.70;76.70;;;11.34;81.68;95317.53;4978795;28;20033;-62
2021/10/03 05:22:54;;;;;;;6.88;5.50;;;12.70;76.50;;;11.34;81.67;95312.25;4977074;28;20030;-62
2021/10/03 05:25:20;;;;;;;5.72;4.78;;;12.70;76.40;;;11.34;81.54;95320.16;4992033;28;20453;-62
2021/10/03 05:27:45;;;;;;;5.85;5.18;;;12.80;76.40;;;11.36;81.65;95312.84;4993159;28;20034;-62
2021/10/03 05:30:11;;;;;;;7.22;5.15;;;12.80;76.30;;;11.38;81.33;95321.34;4992772;28;20034;-62
2021/10/03 05:32:37;;;;;;;7.20;4.85;;;12.80;76.10;;;11.38;80.97;95320.53;4973419;28;20100;-62
2021/10/03 05:35:03;;;;;;;5.88;4.63;;;12.80;76.20;;;11.39;81.04;95317.69;4959900;28;20030;-61
2021/10/03 05:37:29;;;;;;;5.53;4.63;;;12.80;76.00;;;11.38;80.69;95315.28;4960192;28;20116;-63
2021/10/03 05:39:55;;;;;;;6.75;4.78;;;12.80;76.00;;;11.39;81.71;95314.25;4968412;28;20649;-62
2021/10/03 05:42:21;;;;;;;7.15;5.15;;;12.80;76.20;;;11.39;81.12;95316.88;4959550;28;20053;-63
2021/10/03 05:44:47;;;;;;;8.50;5.22;;;12.80;76.20;;;11.40;80.61;95306.13;4976206;28;20065;-61
2021/10/03 05:47:13;;;;;;;7.00;4.93;;;12.90;75.80;;;11.40;81.04;95303.50;4991657;28;20033;-62
2021/10/03 05:49:38;;;;;;;6.35;4.80;;;12.80;75.80;;;11.42;81.41;95298.03;4992291;28;20034;-61
2021/10/03 05:52:04;;;;;;;5.53;4.97;;;12.90;75.60;;;11.43;80.98;95303.06;4956238;28;20058;-61
2021/10/03 05:54:30;;;;;;;5.72;4.53;;;12.90;75.30;;;11.45;80.57;95301.03;4958694;28;20034;-61
2021/10/03 05:56:55;;;;;;;7.85;4.88;;;13.00;75.40;;;11.46;80.81;95299.19;5012279;28;20596;-62
2021/10/03 05:59:21;;;;;;;6.85;4.85;;;12.90;75.40;;;11.47;80.38;95296.34;5003022;28;20042;-61
2021/10/03 06:01:47;;;;;;;7.60;6.68;;;13.00;75.60;;;11.51;80.72;95302.00;4948590;28;20086;-62
2021/10/03 06:04:13;;;;;;;12.07;8.95;;;13.00;74.90;;;11.54;80.87;95288.41;4981726;28;20060;-62
2021/10/03 06:06:38;;;;;;;8.10;6.80;;;13.10;75.00;;;11.57;80.83;95296.69;4975694;28;20038;-63
2021/10/03 06:09:04;;;;;;;6.45;5.28;;;13.10;75.00;;;11.59;80.59;95301.75;4951288;28;20745;-63
2021/10/03 06:11:30;;;;;;;7.47;6.65;;;13.10;74.50;;;11.63;80.07;95295.84;4991994;28;20065;-63
2021/10/03 06:13:57;;;;;;;11.32;9.13;;;13.20;74.80;;;11.68;80.60;95292.53;4975787;28;20045;-64
2021/10/03 06:16:23;;;;;;;13.07;10.02;;;13.20;74.50;;;11.71;80.41;95289.47;4991550;28;20038;-63
2021/10/03 06:18:48;;;;;;;7.38;5.60;;;13.30;74.60;;;11.74;79.55;95280.34;4975727;28;20117;-64
2021/10/03 06:21:15;;;;;;;8.23;6.13;;;13.30;74.10;;;11.81;80.05;95289.03;4957142;28;20022;-64
2021/10/03 06:23:42;;;;;;;7.38;5.80;;;13.40;74.20;;;11.84;80.01;95289.41;4992352;28;20109;-65
2021/10/03 06:26:08;;;;;;;8.07;6.00;;;13.50;73.70;;;11.88;79.78;95295.03;4982097;28;20030;-67
2021/10/03 06:28:33;;;;;;;8.05;6.18;;;13.50;73.80;;;11.92;79.43;95296.22;4975133;28;20075;-66
2021/10/03 06:30:59;;;;;;;7.07;5.05;;;13.60;73.70;;;11.97;79.97;95293.72;4974909;28;20053;-65
2021/10/03 06:33:25;;;;;;;6.50;5.35;;;13.60;73.10;;;12.01;79.66;95294.94;4996332;28;20480;-66
2021/10/03 06:35:52;;;;;;;6.05;4.90;;;13.70;73.00;;;12.09;79.88;95292.00;4975085;28;20610;-65
2021/10/03 06:38:17;;;;;;;6.45;5.65;;;13.70;72.80;;;12.15;79.32;95296.41;4967449;28;20057;-67
2021/10/03 06:40:43;;;;;;;6.95;5.55;;;13.80;72.50;;;12.22;78.88;95291.91;4992923;28;20034;-66
2021/10/03 06:43:09;;;;;;;6.93;5.45;;;14.00;73.00;;;12.31;79.49;95288.97;5003520;28;20041;-65
2021/10/03 06:45:35;;;;;;;23.42;17.60;;;14.10;72.60;;;12.41;78.63;95289.25;4997865;28;20038;-65
2021/10/03 06:48:00;;;;;;;18.00;12.95;;;14.30;72.30;;;12.51;79.05;95289.53;4980845;28;20041;-66
2021/10/03 06:50:26;;;;;;;7.63;6.50;;;14.30;72.30;;;12.61;78.80;95292.47;4981921;28;20058;-65
2021/10/03 06:52:52;;;;;;;7.93;6.45;;;14.40;71.20;;;12.68;78.63;95285.28;4970342;28;20030;-67
2021/10/03 06:55:18;;;;;;;6.72;5.80;;;14.50;71.10;;;12.76;78.48;95289.44;4983462;28;20069;-66
2021/10/03 06:57:44;;;;;;;6.38;5.40;;;14.70;71.40;;;12.90;78.03;95301.47;4953462;28;20049;-64
2021/10/03 07:00:10;;;;;;;10.40;6.13;;;14.90;70.60;;;13.03;78.37;95308.38;4974489;28;20068;-64
2021/10/03 07:02:36;;;;;;;12.05;8.32;;;15.00;70.00;;;13.15;78.28;95302.13;4974426;28;20044;-64
2021/10/03 07:05:03;;;;;;;9.77;7.80;;;15.10;69.80;;;13.30;77.24;95301.75;4975284;28;20033;-65
2021/10/03 07:07:29;;;;;;;7.82;5.97;;;15.40;69.30;;;13.43;76.94;95298.13;4990489;28;20141;-66
2021/10/03 07:09:55;;;;;;;7.40;6.50;;;15.50;68.00;;;13.61;77.15;95300.69;4990880;28;20542;-66
2021/10/03 07:12:20;;;;;;;7.38;5.85;;;15.80;68.30;;;13.81;76.51;95295.09;4970901;28;20041;-62
2021/10/03 07:14:46;;;;;;;8.43;6.85;;;16.10;67.60;;;14.02;76.34;95296.34;4983906;28;20130;-62
2021/10/03 07:17:12;;;;;;;9.88;8.25;;;16.40;66.50;;;14.25;76.34;95296.34;4957371;28;20049;-62
2021/10/03 07:19:38;;;;;;;11.10;8.60;;;16.70;65.30;;;14.46;74.51;95302.09;4972612;28;20042;-62
2021/10/03 07:22:04;;;;;;;7.75;6.68;;;16.90;63.70;;;14.64;73.61;95304.59;4974434;28;20117;-63
2021/10/03 07:24:30;;;;;;;6.57;5.68;;;17.10;63.20;;;14.83;72.65;95292.03;4974517;28;20038;-63
2021/10/03 07:26:56;;;;;;;7.00;4.70;;;17.40;61.40;;;15.02;72.57;95298.75;4961842;28;20125;-64
2021/10/03 07:29:22;;;;;;;5.00;4.07;;;17.70;60.20;;;15.24;72.10;95298.91;4985422;28;20541;-63
2021/10/03 07:31:48;;;;;;;8.27;4.80;;;18.10;59.50;;;15.49;71.67;95295.88;4972059;28;20034;-63
2021/10/03 07:34:13;;;;;;;5.75;4.55;;;18.60;58.20;;;15.72;70.61;95295.78;4983967;28;20448;-63
2021/10/03 07:36:39;;;;;;;6.32;4.15;;;18.70;56.70;;;15.94;70.76;95293.22;4981848;28;20029;-64
2021/10/03 07:39:05;;;;;;;6.10;4.00;;;19.10;56.00;;;16.17;69.73;95293.03;4982024;28;20030;-64
2021/10/03 07:41:31;;;;;;;4.93;3.63;;;19.40;55.40;;;16.45;68.85;95294.75;4977202;28;20037;-64
2021/10/03 07:43:56;;;;;;;4.88;3.65;;;19.80;53.90;;;16.72;68.31;95294.06;4972116;28;20026;-64
2021/10/03 07:46:22;;;;;;;6.53;3.75;;;20.10;53.40;;;17.00;67.82;95288.56;4986309;28;20061;-66
2021/10/03 07:48:48;;;;;;;6.97;4.38;;;20.50;52.20;;;17.27;66.76;95291.25;4974237;28;20503;-62
2021/10/03 07:51:14;;;;;;;5.43;3.80;;;20.90;52.00;;;17.57;66.02;95290.72;4958552;28;20522;-62
2021/10/03 07:53:40;;;;;;;4.47;3.42;;;21.20;50.40;;;17.84;65.28;95285.41;4953091;28;20521;-62
2021/10/03 07:56:06;;;;;;;5.80;4.20;;;21.50;50.10;;;18.13;64.65;95288.56;4985444;28;20042;-61
2021/10/03 07:58:32;;;;;;;6.90;4.45;;;21.70;49.40;;;18.38;65.07;95295.09;4960743;28;20038;-63
2021/10/03 08:00:58;;;;;;;5.75;4.13;;;21.90;49.30;;;18.56;64.26;95298.16;4988918;28;20219;-62
2021/10/03 08:03:24;;;;;;;7.47;4.00;;;22.00;49.30;;;18.71;63.56;95292.09;4976044;28;20037;-62
2021/10/03 08:05:49;;;;;;;6.00;4.30;;;22.10;48.80;;;18.92;63.20;95296.47;5002762;28;20041;-63
2021/10/03 08:08:15;;;;;;;4.93;3.72;;;22.30;48.50;;;19.08;63.74;95301.84;4993827;28;20066;-61
2021/10/03 08:10:41;;;;;;;5.38;3.70;;;22.50;48.50;;;19.25;62.65;95300.59;4993313;28;20092;-62
2021/10/03 08:13:07;;;;;;;5.93;4.10;;;22.60;47.90;;;19.43;61.60;95304.59;4987673;28;20034;-61
2021/10/03 08:15:34;;;;;;;7.03;4.28;;;22.90;47.40;;;19.63;61.99;95305.75;4971204;28;20038;-62
2021/10/03 08:17:59;;;;;;;4.88;3.60;;;23.00;47.00;;;19.76;61.34;95302.56;4987551;28;20333;-61
2021/10/03 08:20:25;;;;;;;5.43;3.78;;;23.10;47.50;;;19.88;61.58;95303.88;4976449;28;20068;-61
2021/10/03 08:22:51;;;;;;;6.50;3.45;;;23.20;47.90;;;20.10;60.75;95298.28;4976808;28;20403;-62
2021/10/03 08:25:17;;;;;;;6.10;3.78;;;23.50;46.30;;;20.32;60.04;95292.66;5010652;28;20142;-63
2021/10/03 08:27:43;;;;;;;16.13;9.43;;;23.80;45.30;;;20.58;59.56;95290.75;4973945;28;20507;-64
2021/10/03 08:30:09;;;;;;;6.95;5.30;;;24.10;44.60;;;20.86;58.81;95292.03;4958524;28;20042;-64
2021/10/03 08:32:35;;;;;;;4.75;3.13;;;24.50;43.90;;;21.15;58.32;95294.03;4990571;28;20090;-63
2021/10/03 08:35:01;;;;;;;4.22;2.80;;;24.80;44.00;;;21.45;58.08;95287.75;5002261;28;20063;-63
2021/10/03 08:37:26;;;;;;;4.95;2.90;;;25.00;43.00;;;21.62;57.41;95288.97;4986221;28;20038;-64
2021/10/03 08:39:52;;;;;;;6.43;3.05;;;25.00;43.10;;;21.90;57.44;95279.41;4977210;28;20050;-66
2021/10/03 08:42:18;;;;;;;4.78;3.10;;;25.40;43.50;;;22.21;56.72;95279.97;4992488;28;20057;-66
2021/10/03 08:44:44;;;;;;;7.25;2.95;;;25.70;42.20;;;22.47;55.63;95272.50;4960894;28;20042;-63
2021/10/03 08:47:10;;;;;;;4.47;2.90;;;25.80;41.40;;;22.71;55.26;95283.22;4981339;28;20039;-64
2021/10/03 08:49:36;;;;;;;4.78;2.60;;;26.10;40.60;;;22.94;54.15;95273.59;4976202;28;20428;-64
2021/10/03 08:52:01;;;;;;;3.30;2.60;;;26.40;40.30;;;23.20;53.94;95274.88;4991134;28;20092;-64
2021/10/03 08:54:27;;;;;;;3.10;2.40;;;26.60;40.10;;;23.42;52.83;95270.81;4940614;28;20520;-65
2021/10/03 08:56:55;;;;;;;6.22;3.20;;;27.00;39.20;;;23.63;52.89;95282.91;4959520;28;20134;-64
2021/10/03 08:59:20;;;;;;;9.38;7.18;;;27.10;39.10;;;23.77;52.43;95273.03;4989444;28;20038;-66
2021/10/03 09:01:56;;;;;;;10.02;7.03;;;27.10;39.20;;;23.95;49.17;95278.66;4945574;28;20042;-64
2021/10/03 09:04:37;;;;;;;6.15;3.40;;;27.40;38.90;;;24.09;48.51;95266.88;5004484;28;20034;-65
2021/10/03 09:07:14;;;;;;;5.07;3.28;;;27.40;38.30;;;24.26;49.25;95276.28;4994265;28;20109;-62
2021/10/03 09:09:51;;;;;;;6.15;2.90;;;27.70;38.80;;;24.47;48.90;95274.06;4975752;28;20087;-62
2021/10/03 09:12:37;;;;;;;8.15;7.15;;;28.00;38.80;;;24.73;48.96;95269.78;4944828;28;20045;-62
2021/10/03 09:15:22;;;;;;;7.20;5.85;;;28.50;38.60;;;24.84;47.34;95273.84;4972657;28;20153;-61
2021/10/03 09:17:55;;;;;;;6.78;4.20;;;28.40;37.30;;;24.89;48.24;95268.38;4993676;28;20030;-63
2021/10/03 09:20:25;;;;;;;4.47;3.10;;;28.60;37.90;;;25.09;47.63;95263.72;4983148;28;20034;-63
2021/10/03 09:23:08;;;;;;;5.22;2.63;;;29.10;36.60;;;25.33;46.53;95264.25;4973321;28;20053;-63
2021/10/03 09:25:37;;;;;;;5.10;2.80;;;29.60;35.70;;;25.60;47.16;95269.59;4990062;28;20116;-62
2021/10/03 09:28:06;;;;;;;3.28;2.40;;;30.10;35.40;;;25.83;47.34;95272.34;4989510;28;20042;-63
2021/10/03 09:30:34;;;;;;;3.70;2.10;;;30.70;33.70;;;26.06;47.88;95254.28;4976624;28;20034;-63
2021/10/03 09:33:00;;;;;;;4.40;2.22;;;31.30;32.60;;;26.17;47.30;95261.78;4963880;28;20031;-66
2021/10/03 09:35:30;;;;;;;4.75;2.38;;;31.00;33.30;;;26.26;45.27;95256.47;5008080;28;20041;-66
2021/10/03 09:37:56;;;;;;;3.22;2.03;;;31.40;33.00;;;26.48;47.66;95255.63;4992148;28;20038;-66
2021/10/03 09:40:23;;;;;;;3.80;1.90;;;32.50;31.10;;;26.80;46.85;95257.22;4987225;28;20554;-63
2021/10/03 09:43:03;;;;;;;3.40;2.38;;;33.40;29.20;;;27.24;43.88;95256.25;4975609;28;20152;-63
2021/10/03 09:45:29;;;;;;;3.70;1.90;;;34.10;28.80;;;27.70;46.33;95263.00;4943469;28;20042;-63
2021/10/03 09:48:04;;;;;;;4.38;1.90;;;34.60;27.90;;;28.16;41.47;95256.91;4982796;28;20072;-66
2021/10/03 09:50:31;;;;;;;1.90;1.63;;;35.30;27.10;;;28.63;43.39;95244.25;4956225;28;20046;-67
2021/10/03 09:52:57;;;;;;;4.13;1.90;;;36.10;24.70;;;29.02;43.56;95236.94;4973178;28;20489;-69
2021/10/03 09:55:26;;;;;;;3.55;1.95;;;37.00;24.80;;;29.48;42.83;95238.72;4995559;28;20037;-63
2021/10/03 09:57:56;;;;;;;4.33;1.70;;;38.10;23.00;;;29.95;37.95;95237.72;4988747;28;20042;-64
2021/10/03 10:00:25;;;;;;;2.78;1.77;;;39.00;22.10;;;30.36;39.57;95234.94;4975670;28;20033;-64
2021/10/03 10:02:51;;;;;;;;;;;39.80;21.60;;;30.75;36.10;95238.16;4976011;28;20427;-64
2021/10/03 10:05:23;;;;;;;4.00;1.70;;;40.10;21.00;;;31.17;36.48;95237.97;4987376;28;19921;-64
2021/10/03 10:07:49;;;;;;;2.30;1.90;;;40.30;20.90;;;31.50;39.72;95232.38;4984009;28;20474;-65
2021/10/03 10:10:15;;;;;;;5.07;1.92;;;40.60;20.60;;;31.88;39.02;95226.50;4963607;28;20038;-63
2021/10/03 10:13:08;;;;;;;3.88;1.73;;;41.70;19.70;;;32.41;33.62;95222.53;4978572;28;20034;-64
2021/10/03 10:15:34;;;;;;;2.80;2.13;;;42.80;18.60;;;32.86;37.38;95222.13;4982346;28;20144;-64